createdAt,value
2019-04-25T00:00:26.086Z,16.26
2019-04-25T00:01:21.823Z,16.23
2019-04-25T00:02:21.796Z,16.28
2019-04-25T00:03:22.598Z,16.23
2019-04-25T00:04:23.693Z,16.17
2019-04-25T00:05:21.747Z,16.20
2019-04-25T00:06:23.044Z,16.09
2019-04-25T00:07:21.738Z,16.05
2019-04-25T00:08:21.633Z,16.05
2019-04-25T00:09:21.879Z,16.00
2019-04-25T00:10:22.061Z,15.97
2019-04-25T00:11:21.631Z,15.86
2019-04-25T00:12:22.249Z,15.88
2019-04-25T00:13:21.843Z,15.84
2019-04-25T00:14:22.603Z,15.83
2019-04-25T00:15:22.384Z,15.79
2019-04-25T00:16:21.618Z,15.84
2019-04-25T00:17:21.465Z,15.80
2019-04-25T00:18:22.102Z,15.75
2019-04-25T00:19:21.886Z,15.79
2019-04-25T00:20:21.444Z,15.77
2019-04-25T00:21:21.961Z,15.72
2019-04-25T00:22:21.676Z,15.70
2019-04-25T00:23:21.698Z,15.77
2019-04-25T00:24:21.842Z,15.75
2019-04-25T00:25:21.863Z,15.61
2019-04-25T00:26:21.270Z,15.73
2019-04-25T00:27:21.628Z,15.75
2019-04-25T00:28:21.669Z,15.70
2019-04-25T00:29:22.058Z,15.77
2019-04-25T00:30:22.485Z,15.67
2019-04-25T00:31:22.055Z,15.73
2019-04-25T00:32:21.677Z,15.73
2019-04-25T00:33:21.594Z,15.65
2019-04-25T00:34:21.833Z,15.68
2019-04-25T00:35:21.688Z,15.67
2019-04-25T00:36:21.782Z,15.64
2019-04-25T00:37:22.446Z,15.64
2019-04-25T00:38:22.211Z,15.61
2019-04-25T00:39:21.757Z,15.62
2019-04-25T00:40:21.950Z,15.55
2019-04-25T00:41:21.334Z,15.54
2019-04-25T00:42:20.732Z,15.43
2019-04-25T00:43:21.473Z,15.51
2019-04-25T00:44:21.946Z,15.46
2019-04-25T00:45:22.312Z,15.37
2019-04-25T00:46:22.435Z,15.49
2019-04-25T00:47:21.647Z,15.31
2019-04-25T00:48:22.212Z,15.28
2019-04-25T00:49:22.032Z,15.33
2019-04-25T00:50:21.881Z,15.31
2019-04-25T00:51:21.773Z,15.24
2019-04-25T00:52:21.146Z,15.21
2019-04-25T00:53:21.209Z,15.14
2019-04-25T00:54:20.408Z,15.07
2019-04-25T00:55:28.249Z,15.00
2019-04-25T00:56:20.379Z,15.04
2019-04-25T00:57:21.977Z,14.94
2019-04-25T00:58:21.484Z,14.97
2019-04-25T00:59:22.007Z,14.96
2019-04-25T01:00:21.638Z,14.91
2019-04-25T01:01:21.788Z,14.91
2019-04-25T01:02:21.424Z,14.85
2019-04-25T01:03:21.487Z,14.91
2019-04-25T01:04:21.738Z,14.82
2019-04-25T01:05:21.618Z,14.77
2019-04-25T01:06:21.971Z,14.66
2019-04-25T01:07:20.075Z,14.62
2019-04-25T01:08:21.891Z,14.73
2019-04-25T01:09:22.217Z,14.77
2019-04-25T01:10:21.419Z,14.70
2019-04-25T01:11:21.403Z,14.68
2019-04-25T01:12:21.482Z,14.73
2019-04-25T01:13:19.905Z,14.79
2019-04-25T01:14:19.864Z,14.84
2019-04-25T01:15:21.393Z,14.88
2019-04-25T01:16:19.898Z,14.89
2019-04-25T01:17:21.222Z,14.92
2019-04-25T01:18:19.760Z,15.06
2019-04-25T01:19:19.782Z,15.04
2019-04-25T01:20:19.812Z,15.03
2019-04-25T01:21:19.677Z,15.04
2019-04-25T01:22:19.670Z,14.97
2019-04-25T01:23:19.618Z,14.99
2019-04-25T01:24:19.595Z,14.97
2019-04-25T01:25:19.567Z,14.92
2019-04-25T01:26:19.545Z,14.91
2019-04-25T01:27:19.537Z,14.92
2019-04-25T01:28:19.484Z,15.00
2019-04-25T01:29:19.456Z,15.00
2019-04-25T01:30:19.429Z,15.06
2019-04-25T01:31:19.400Z,15.03
2019-04-25T01:32:19.406Z,15.02
2019-04-25T01:33:19.350Z,15.04
2019-04-25T01:34:19.320Z,15.03
2019-04-25T01:35:19.298Z,15.06
2019-04-25T01:36:19.268Z,15.03
2019-04-25T01:37:19.262Z,15.14
2019-04-25T01:38:19.218Z,15.02
2019-04-25T01:39:19.187Z,15.10
2019-04-25T01:40:19.159Z,15.07
2019-04-25T01:41:19.139Z,15.15
2019-04-25T01:42:19.142Z,15.19
2019-04-25T01:43:19.079Z,15.18
2019-04-25T01:44:19.049Z,15.19
2019-04-25T01:45:19.025Z,15.22
2019-04-25T01:46:18.997Z,15.18
2019-04-25T01:47:18.991Z,15.21
2019-04-25T01:48:18.943Z,15.24
2019-04-25T01:49:18.915Z,15.19
2019-04-25T01:50:18.894Z,15.17
2019-04-25T01:51:18.862Z,15.18
2019-04-25T01:52:18.860Z,15.15
2019-04-25T01:53:18.810Z,15.21
2019-04-25T01:54:18.787Z,15.25
2019-04-25T01:55:18.763Z,15.19
2019-04-25T01:56:18.728Z,15.31
2019-04-25T01:57:18.738Z,15.29
2019-04-25T01:58:18.674Z,15.39
2019-04-25T01:59:18.648Z,15.36
2019-04-25T02:00:18.630Z,15.35
2019-04-25T02:01:18.593Z,15.39
2019-04-25T02:02:18.591Z,15.33
2019-04-25T02:03:18.539Z,15.39
2019-04-25T02:04:18.518Z,15.40
2019-04-25T02:05:18.484Z,15.46
2019-04-25T02:06:18.457Z,15.49
2019-04-25T02:07:18.456Z,15.42
2019-04-25T02:08:18.405Z,15.47
2019-04-25T02:09:18.378Z,15.44
2019-04-25T02:10:18.351Z,15.42
2019-04-25T02:11:18.321Z,15.49
2019-04-25T02:12:20.259Z,15.44
2019-04-25T02:13:18.272Z,15.52
2019-04-25T02:14:18.240Z,15.43
2019-04-25T02:15:18.221Z,15.43
2019-04-25T02:16:18.191Z,15.44
2019-04-25T02:17:18.162Z,15.40
2019-04-25T02:18:18.168Z,15.39
2019-04-25T02:19:18.125Z,15.46
2019-04-25T02:20:18.148Z,15.37
2019-04-25T02:21:18.057Z,15.42
2019-04-25T02:22:18.030Z,15.39
2019-04-25T02:23:18.656Z,15.28
2019-04-25T02:24:17.972Z,15.33
2019-04-25T02:25:17.950Z,15.33
2019-04-25T02:26:18.627Z,15.33
2019-04-25T02:27:17.893Z,15.29
2019-04-25T02:28:17.892Z,15.29
2019-04-25T02:29:17.846Z,15.19
2019-04-25T02:30:17.810Z,15.17
2019-04-25T02:31:18.415Z,15.22
2019-04-25T02:32:17.755Z,15.15
2019-04-25T02:33:17.755Z,15.09
2019-04-25T02:34:18.226Z,15.07
2019-04-25T02:35:17.673Z,15.09
2019-04-25T02:36:17.694Z,15.00
2019-04-25T02:37:17.623Z,15.00
2019-04-25T02:38:17.615Z,15.10
2019-04-25T02:39:17.602Z,15.09
2019-04-25T02:40:17.540Z,15.09
2019-04-25T02:41:17.513Z,15.06
2019-04-25T02:42:17.483Z,15.03
2019-04-25T02:43:17.486Z,15.06
2019-04-25T02:44:17.497Z,15.02
2019-04-25T02:45:17.407Z,15.00
2019-04-25T02:47:17.347Z,15.02
2019-04-25T02:48:17.344Z,15.00
2019-04-25T02:49:29.304Z,14.91
2019-04-25T02:50:17.266Z,14.96
2019-04-25T02:51:17.255Z,14.96
2019-04-25T02:52:18.064Z,14.96
2019-04-25T02:53:17.214Z,14.92
2019-04-25T02:54:17.156Z,14.78
2019-04-25T02:55:30.934Z,14.79
2019-04-25T02:56:30.583Z,14.82
2019-04-25T02:57:17.083Z,14.81
2019-04-25T02:58:17.097Z,14.78
2019-04-25T02:59:17.018Z,14.72
2019-04-25T03:00:16.995Z,14.73
2019-04-25T03:01:22.362Z,14.73
2019-04-25T03:02:17.616Z,14.65
2019-04-25T03:03:16.912Z,14.70
2019-04-25T03:04:16.919Z,14.65
2019-04-25T03:05:16.855Z,14.65
2019-04-25T03:06:16.838Z,14.62
2019-04-25T03:07:17.679Z,14.63
2019-04-25T03:08:16.773Z,14.70
2019-04-25T03:09:16.780Z,14.65
2019-04-25T03:10:16.723Z,14.62
2019-04-25T03:11:16.692Z,14.59
2019-04-25T03:12:29.162Z,14.50
2019-04-25T03:13:16.641Z,14.51
2019-04-25T03:14:16.638Z,14.50
2019-04-25T03:15:16.597Z,14.54
2019-04-25T03:16:16.559Z,14.50
2019-04-25T03:17:16.541Z,14.48
2019-04-25T03:18:16.500Z,14.44
2019-04-25T03:19:16.494Z,14.44
2019-04-25T03:20:16.447Z,14.48
2019-04-25T03:21:17.516Z,14.35
2019-04-25T03:22:16.391Z,14.30
2019-04-25T03:23:16.359Z,14.36
2019-04-25T03:24:16.953Z,14.33
2019-04-25T03:25:17.722Z,14.23
2019-04-25T03:26:16.276Z,14.23
2019-04-25T03:27:16.249Z,14.08
2019-04-25T03:28:16.236Z,14.03
2019-04-25T03:29:16.222Z,13.92
2019-04-25T03:30:17.984Z,13.95
2019-04-25T03:31:22.441Z,13.90
2019-04-25T03:32:19.596Z,13.77
2019-04-25T03:33:19.591Z,13.78
2019-04-25T03:34:20.303Z,13.75
2019-04-25T03:35:17.032Z,13.79
2019-04-25T03:36:16.989Z,13.81
2019-04-25T03:37:15.976Z,13.77
2019-04-25T03:38:15.942Z,13.67
2019-04-25T03:39:16.500Z,13.65
2019-04-25T03:40:15.886Z,13.71
2019-04-25T03:41:15.856Z,13.53
2019-04-25T03:42:15.830Z,13.54
2019-04-25T03:43:15.805Z,13.42
2019-04-25T03:44:15.801Z,13.44
2019-04-25T03:45:15.751Z,13.46
2019-04-25T03:46:15.726Z,13.39
2019-04-25T03:47:15.694Z,13.37
2019-04-25T03:48:15.660Z,13.28
2019-04-25T03:49:15.630Z,13.27
2019-04-25T03:50:15.626Z,13.30
2019-04-25T03:51:15.825Z,13.16
2019-04-25T03:52:15.553Z,13.13
2019-04-25T03:53:15.533Z,13.12
2019-04-25T03:54:15.492Z,13.03
2019-04-25T03:55:15.484Z,12.90
2019-04-25T03:56:15.433Z,12.94
2019-04-25T03:57:15.463Z,12.87
2019-04-25T03:58:15.376Z,12.79
2019-04-25T03:59:16.141Z,12.75
2019-04-25T04:00:15.343Z,12.67
2019-04-25T04:01:15.693Z,12.53
2019-04-25T04:02:15.385Z,12.55
2019-04-25T04:03:15.309Z,12.49
2019-04-25T04:04:16.303Z,12.53
2019-04-25T04:05:15.197Z,12.47
2019-04-25T04:06:15.690Z,12.43
2019-04-25T04:07:15.963Z,12.42
2019-04-25T04:08:15.853Z,12.42
2019-04-25T04:09:15.229Z,12.43
2019-04-25T04:10:15.546Z,12.36
2019-04-25T04:11:15.685Z,12.35
2019-04-25T04:12:15.745Z,12.31
2019-04-25T04:13:15.883Z,12.36
2019-04-25T04:14:15.784Z,12.31
2019-04-25T04:15:15.978Z,12.24
2019-04-25T04:16:15.749Z,12.25
2019-04-25T04:17:15.957Z,12.28
2019-04-25T04:18:17.240Z,12.29
2019-04-25T04:19:15.827Z,12.31
2019-04-25T04:20:15.896Z,12.22
2019-04-25T04:21:16.172Z,12.25
2019-04-25T04:22:15.382Z,12.22
2019-04-25T04:23:15.631Z,12.27
2019-04-25T04:24:15.206Z,12.28
2019-04-25T04:25:14.752Z,12.31
2019-04-25T04:26:14.603Z,12.27
2019-04-25T04:27:15.647Z,12.24
2019-04-25T04:28:14.947Z,12.29
2019-04-25T04:29:15.276Z,12.27
2019-04-25T04:30:15.342Z,12.39
2019-04-25T04:31:15.424Z,12.29
2019-04-25T04:32:14.811Z,12.32
2019-04-25T04:33:27.558Z,12.42
2019-04-25T04:34:23.666Z,12.39
2019-04-25T04:35:15.143Z,12.49
2019-04-25T04:36:17.382Z,12.45
2019-04-25T04:37:15.211Z,12.54
2019-04-25T04:38:15.244Z,12.65
2019-04-25T04:39:16.467Z,12.64
2019-04-25T04:40:16.027Z,12.76
2019-04-25T04:41:15.144Z,12.73
2019-04-25T04:42:14.988Z,12.80
2019-04-25T04:43:15.329Z,12.90
2019-04-25T04:44:15.371Z,13.01
2019-04-25T04:45:15.463Z,13.20
2019-04-25T04:46:16.737Z,13.39
2019-04-25T04:47:15.305Z,13.47
2019-04-25T04:48:14.647Z,13.49
2019-04-25T04:49:15.138Z,13.56
2019-04-25T04:50:14.494Z,13.65
2019-04-25T04:51:14.907Z,13.67
2019-04-25T04:52:14.722Z,13.70
2019-04-25T04:53:14.978Z,13.77
2019-04-25T04:54:14.633Z,13.79
2019-04-25T04:55:16.898Z,13.95
2019-04-25T04:56:15.231Z,14.00
2019-04-25T04:57:23.545Z,14.07
2019-04-25T04:58:14.984Z,14.10
2019-04-25T04:59:14.647Z,14.14
2019-04-25T05:00:14.593Z,14.10
2019-04-25T05:01:14.759Z,14.10
2019-04-25T05:02:15.830Z,14.10
2019-04-25T05:03:14.922Z,14.08
2019-04-25T05:04:14.906Z,14.08
2019-04-25T05:05:14.455Z,13.93
2019-04-25T05:06:14.854Z,13.93
2019-04-25T05:07:14.921Z,13.87
2019-04-25T05:08:14.998Z,13.96
2019-04-25T05:09:15.144Z,13.92
2019-04-25T05:10:16.517Z,13.92
2019-04-25T05:11:15.409Z,13.93
2019-04-25T05:12:14.940Z,13.92
2019-04-25T05:13:15.386Z,13.93
2019-04-25T05:14:14.894Z,13.93
2019-04-25T05:15:15.298Z,13.95
2019-04-25T05:16:15.035Z,14.05
2019-04-25T05:17:14.958Z,14.14
2019-04-25T05:18:15.586Z,14.12
2019-04-25T05:19:15.446Z,14.20
2019-04-25T05:20:15.129Z,14.26
2019-04-25T05:21:14.833Z,14.29
2019-04-25T05:22:14.542Z,14.28
2019-04-25T05:23:14.825Z,14.29
2019-04-25T05:24:15.215Z,14.35
2019-04-25T05:25:15.273Z,14.37
2019-04-25T05:26:14.897Z,14.50
2019-04-25T05:27:15.411Z,14.54
2019-04-25T05:28:15.547Z,14.59
2019-04-25T05:29:15.509Z,14.45
2019-04-25T05:30:15.366Z,14.55
2019-04-25T05:31:15.398Z,14.47
2019-04-25T05:32:13.116Z,14.48
2019-04-25T05:33:14.672Z,14.48
2019-04-25T05:34:14.505Z,14.48
2019-04-25T05:35:14.093Z,14.51
2019-04-25T05:36:14.954Z,14.50
2019-04-25T05:37:14.384Z,14.55
2019-04-25T05:38:14.242Z,14.65
2019-04-25T05:39:15.238Z,14.58
2019-04-25T05:40:14.727Z,14.51
2019-04-25T05:41:14.783Z,14.51
2019-04-25T05:42:14.124Z,14.48
2019-04-25T05:43:13.432Z,14.36
2019-04-25T05:44:13.985Z,14.33
2019-04-25T05:45:13.064Z,14.23
2019-04-25T05:46:13.205Z,14.28
2019-04-25T05:47:12.300Z,14.17
2019-04-25T05:48:12.278Z,14.20
2019-04-25T05:49:13.740Z,14.05
2019-04-25T05:50:13.811Z,14.08
2019-04-25T05:51:13.632Z,13.93
2019-04-25T05:52:13.882Z,13.95
2019-04-25T05:53:12.200Z,14.05
2019-04-25T05:54:12.106Z,14.07
2019-04-25T05:55:12.087Z,14.05
2019-04-25T05:56:12.080Z,14.03
2019-04-25T05:57:13.608Z,13.92
2019-04-25T05:58:13.537Z,14.05
2019-04-25T05:59:13.386Z,14.04
2019-04-25T06:00:13.426Z,14.04
2019-04-25T06:01:13.394Z,14.04
2019-04-25T06:02:11.887Z,14.11
2019-04-25T06:03:13.606Z,14.08
2019-04-25T06:04:13.575Z,14.12
2019-04-25T06:05:13.179Z,14.23
2019-04-25T06:06:13.334Z,14.25
2019-04-25T06:07:11.771Z,14.22
2019-04-25T06:08:11.718Z,14.29
2019-04-25T06:09:11.696Z,14.23
2019-04-25T06:10:11.734Z,14.20
2019-04-25T06:11:11.642Z,14.33
2019-04-25T06:12:13.313Z,14.30
2019-04-25T06:13:11.582Z,14.30
2019-04-25T06:14:11.563Z,14.45
2019-04-25T06:15:13.120Z,14.55
2019-04-25T06:16:13.280Z,14.60
2019-04-25T06:17:11.561Z,14.68
2019-04-25T06:18:11.451Z,14.72
2019-04-25T06:19:15.994Z,14.84
2019-04-25T06:20:11.444Z,14.82
2019-04-25T06:21:11.364Z,14.79
2019-04-25T06:22:11.367Z,14.97
2019-04-25T06:23:11.312Z,14.96
2019-04-25T06:24:11.277Z,15.03
2019-04-25T06:25:13.752Z,15.11
2019-04-25T06:26:22.983Z,15.15
2019-04-25T06:27:11.224Z,15.22
2019-04-25T06:28:11.172Z,15.18
2019-04-25T06:29:11.144Z,15.22
2019-04-25T06:30:11.163Z,15.21
2019-04-25T06:31:11.081Z,15.22
2019-04-25T06:32:11.089Z,15.22
2019-04-25T06:33:11.033Z,15.22
2019-04-25T06:34:11.005Z,15.31
2019-04-25T06:35:10.975Z,15.22
2019-04-25T06:36:10.962Z,15.29
2019-04-25T06:37:10.947Z,15.31
2019-04-25T06:38:10.923Z,15.33
2019-04-25T06:39:10.867Z,15.25
2019-04-25T06:40:10.840Z,15.24
2019-04-25T06:41:10.815Z,15.24
2019-04-25T06:42:10.815Z,15.19
2019-04-25T06:43:10.770Z,15.21
2019-04-25T06:44:10.741Z,15.24
2019-04-25T06:45:10.704Z,15.22
2019-04-25T06:46:10.687Z,15.28
2019-04-25T06:47:10.730Z,15.31
2019-04-25T06:48:10.632Z,15.35
2019-04-25T06:49:10.594Z,15.33
2019-04-25T06:50:10.581Z,15.39
2019-04-25T06:51:10.541Z,15.35
2019-04-25T06:52:10.549Z,15.42
2019-04-25T06:53:10.486Z,15.37
2019-04-25T06:54:10.463Z,15.39
2019-04-25T06:55:10.442Z,15.42
2019-04-25T06:56:10.402Z,15.36
2019-04-25T06:57:10.379Z,15.31
2019-04-25T06:58:12.815Z,15.27
2019-04-25T06:59:10.319Z,15.31
2019-04-25T07:00:10.297Z,15.36
2019-04-25T07:01:10.283Z,15.31
2019-04-25T07:02:10.346Z,15.35
2019-04-25T07:03:10.294Z,15.37
2019-04-25T07:04:10.201Z,15.35
2019-04-25T07:05:10.181Z,15.35
2019-04-25T07:06:10.139Z,15.40
2019-04-25T07:07:12.648Z,15.54
2019-04-25T07:08:10.111Z,15.61
2019-04-25T07:09:10.112Z,15.64
2019-04-25T07:10:10.051Z,15.62
2019-04-25T07:11:10.000Z,15.64
2019-04-25T07:12:09.972Z,15.62
2019-04-25T07:13:09.970Z,15.72
2019-04-25T07:14:10.915Z,15.72
2019-04-25T07:15:09.887Z,15.80
2019-04-25T07:16:09.867Z,15.76
2019-04-25T07:17:09.830Z,15.80
2019-04-25T07:18:09.844Z,15.83
2019-04-25T07:19:09.784Z,15.79
2019-04-25T07:20:09.748Z,15.79
2019-04-25T07:21:09.730Z,15.88
2019-04-25T07:22:09.706Z,15.86
2019-04-25T07:23:09.705Z,15.95
2019-04-25T07:24:09.644Z,15.95
2019-04-25T07:25:09.622Z,15.95
2019-04-25T07:26:09.609Z,15.92
2019-04-25T07:27:09.566Z,16.01
2019-04-25T07:28:16.406Z,16.08
2019-04-25T07:29:09.522Z,16.10
2019-04-25T07:30:09.487Z,16.16
2019-04-25T07:31:09.458Z,16.17
2019-04-25T07:32:09.436Z,16.26
2019-04-25T07:33:09.432Z,16.31
2019-04-25T07:34:09.377Z,16.38
2019-04-25T07:35:09.359Z,16.36
2019-04-25T07:36:09.323Z,16.39
2019-04-25T07:37:09.301Z,16.41
2019-04-25T07:38:09.300Z,16.41
2019-04-25T07:39:10.689Z,16.46
2019-04-25T07:40:09.223Z,16.49
2019-04-25T07:41:09.206Z,16.51
2019-04-25T07:42:09.169Z,16.46
2019-04-25T07:43:09.187Z,16.49
2019-04-25T07:44:09.110Z,16.50
2019-04-25T07:45:09.111Z,16.47
2019-04-25T07:46:09.058Z,16.54
2019-04-25T07:47:09.030Z,16.57
2019-04-25T07:48:09.007Z,16.53
2019-04-25T07:49:09.005Z,16.58
2019-04-25T07:50:08.954Z,16.60
2019-04-25T07:51:08.936Z,16.69
2019-04-25T07:52:11.488Z,16.69
2019-04-25T07:53:08.870Z,16.76
2019-04-25T07:54:08.866Z,16.79
2019-04-25T07:55:08.815Z,16.79
2019-04-25T07:56:08.791Z,16.81
2019-04-25T07:57:08.774Z,16.86
2019-04-25T07:58:08.740Z,16.89
2019-04-25T07:59:08.733Z,16.99
2019-04-25T08:00:08.684Z,17.01
2019-04-25T08:01:08.658Z,16.97
2019-04-25T08:02:08.661Z,16.99
2019-04-25T08:03:08.609Z,16.99
2019-04-25T08:04:08.609Z,17.15
2019-04-25T08:05:08.562Z,17.22
2019-04-25T08:06:08.545Z,17.23
2019-04-25T08:07:08.525Z,17.29
2019-04-25T08:08:08.482Z,17.31
2019-04-25T08:09:08.481Z,17.33
2019-04-25T08:10:08.428Z,17.34
2019-04-25T08:11:08.398Z,17.36
2019-04-25T08:12:08.375Z,17.41
2019-04-25T08:13:08.343Z,17.45
2019-04-25T08:14:08.362Z,17.46
2019-04-25T08:15:08.292Z,17.59
2019-04-25T08:16:08.281Z,17.60
2019-04-25T08:17:08.236Z,17.67
2019-04-25T08:18:08.213Z,17.74
2019-04-25T08:19:08.207Z,17.79
2019-04-25T08:20:08.164Z,17.83
2019-04-25T08:21:08.136Z,17.92
2019-04-25T08:22:08.123Z,17.92
2019-04-25T08:23:08.086Z,17.95
2019-04-25T08:24:08.087Z,18.00
2019-04-25T08:25:08.048Z,18.08
2019-04-25T08:26:08.006Z,18.03
2019-04-25T08:27:07.982Z,18.13
2019-04-25T08:28:07.967Z,18.07
2019-04-25T08:29:07.961Z,18.03
2019-04-25T08:30:07.904Z,18.11
2019-04-25T08:31:07.886Z,18.19
2019-04-25T08:32:07.859Z,18.16
2019-04-25T08:33:07.832Z,18.26
2019-04-25T08:34:07.934Z,18.26
2019-04-25T08:35:07.777Z,18.34
2019-04-25T08:36:09.281Z,18.43
2019-04-25T08:37:17.328Z,18.56
2019-04-25T08:38:07.715Z,18.59
2019-04-25T08:39:07.678Z,18.59
2019-04-25T08:40:07.677Z,18.59
2019-04-25T08:41:07.634Z,18.56
2019-04-25T08:42:07.601Z,18.68
2019-04-25T08:43:07.583Z,18.71
2019-04-25T08:44:07.554Z,18.60
2019-04-25T08:45:07.557Z,18.81
2019-04-25T08:46:07.503Z,18.78
2019-04-25T08:47:07.474Z,18.70
2019-04-25T08:48:07.453Z,18.77
2019-04-25T08:49:07.428Z,18.83
2019-04-25T08:50:07.436Z,18.80
2019-04-25T08:51:07.385Z,18.93
2019-04-25T08:52:07.350Z,18.99
2019-04-25T08:53:07.322Z,19.02
2019-04-25T08:54:07.315Z,19.14
2019-04-25T08:55:07.309Z,19.26
2019-04-25T08:56:07.279Z,19.21
2019-04-25T08:57:07.229Z,19.21
2019-04-25T08:58:07.232Z,19.21
2019-04-25T08:59:08.099Z,19.09
2019-04-25T09:00:07.207Z,19.21
2019-04-25T09:01:07.148Z,19.21
2019-04-25T09:02:07.107Z,19.31
2019-04-25T09:03:07.083Z,19.30
2019-04-25T09:04:07.064Z,19.36
2019-04-25T09:05:07.060Z,19.44
2019-04-25T09:06:07.015Z,19.52
2019-04-25T09:07:06.988Z,19.52
2019-04-25T09:08:06.959Z,19.66
2019-04-25T09:09:07.188Z,19.79
2019-04-25T09:10:06.938Z,19.85
2019-04-25T09:11:06.900Z,19.82
2019-04-25T09:12:06.858Z,19.88
2019-04-25T09:13:06.837Z,20.02
2019-04-25T09:14:06.819Z,20.04
2019-04-25T09:15:06.814Z,20.11
2019-04-25T09:16:06.770Z,20.11
2019-04-25T09:17:06.746Z,20.14
2019-04-25T09:18:06.725Z,20.14
2019-04-25T09:19:06.701Z,20.16
2019-04-25T09:20:06.703Z,20.25
2019-04-25T09:21:06.644Z,20.44
2019-04-25T09:22:06.625Z,20.62
2019-04-25T09:23:06.599Z,20.70
2019-04-25T09:24:06.579Z,20.74
2019-04-25T09:25:06.585Z,20.88
2019-04-25T09:26:06.535Z,20.84
2019-04-25T09:27:06.509Z,20.99
2019-04-25T09:28:06.487Z,21.05
2019-04-25T09:29:16.703Z,21.09
2019-04-25T09:30:06.469Z,21.18
2019-04-25T09:31:06.416Z,21.20
2019-04-25T09:32:06.393Z,21.37
2019-04-25T09:33:06.366Z,21.32
2019-04-25T09:34:06.383Z,21.33
2019-04-25T09:35:06.386Z,21.32
2019-04-25T09:36:06.931Z,21.42
2019-04-25T09:37:06.279Z,21.46
2019-04-25T09:38:06.255Z,21.37
2019-04-25T09:39:06.230Z,21.52
2019-04-25T09:40:06.209Z,21.55
2019-04-25T09:41:06.210Z,21.60
2019-04-25T09:42:06.166Z,21.72
2019-04-25T09:43:06.142Z,21.82
2019-04-25T09:44:06.120Z,21.89
2019-04-25T09:45:06.093Z,21.91
2019-04-25T09:46:06.114Z,21.83
2019-04-25T09:47:06.057Z,22.02
2019-04-25T09:48:06.029Z,21.99
2019-04-25T09:49:06.006Z,21.91
2019-04-25T09:50:05.986Z,22.02
2019-04-25T09:51:05.987Z,22.06
2019-04-25T09:52:05.945Z,22.02
2019-04-25T09:53:05.924Z,21.88
2019-04-25T09:54:05.899Z,21.80
2019-04-25T09:55:05.876Z,21.66
2019-04-25T09:56:05.883Z,21.54
2019-04-25T09:57:05.838Z,21.58
2019-04-25T09:58:05.822Z,21.69
2019-04-25T09:59:05.790Z,21.73
2019-04-25T10:00:05.777Z,21.75
2019-04-25T10:01:05.833Z,21.85
2019-04-25T10:02:05.726Z,21.98
2019-04-25T10:03:05.704Z,22.00
2019-04-25T10:04:05.686Z,21.96
2019-04-25T10:05:05.663Z,21.99
2019-04-25T10:06:05.691Z,21.98
2019-04-25T10:07:05.617Z,22.11
2019-04-25T10:08:05.607Z,22.28
2019-04-25T10:09:05.577Z,22.22
2019-04-25T10:10:05.551Z,22.25
2019-04-25T10:11:05.555Z,22.13
2019-04-25T10:12:05.511Z,22.08
2019-04-25T10:13:06.559Z,22.04
2019-04-25T10:14:05.470Z,22.02
2019-04-25T10:15:05.451Z,21.89
2019-04-25T10:16:05.448Z,21.95
2019-04-25T10:17:05.400Z,21.91
2019-04-25T10:18:05.382Z,21.88
2019-04-25T10:19:05.360Z,21.91
2019-04-25T10:20:05.341Z,21.88
2019-04-25T10:21:05.330Z,21.85
2019-04-25T10:22:05.320Z,21.69
2019-04-25T10:23:05.276Z,21.64
2019-04-25T10:24:05.301Z,21.58
2019-04-25T10:25:05.231Z,21.50
2019-04-25T10:26:05.207Z,21.57
2019-04-25T10:27:05.210Z,21.52
2019-04-25T10:28:05.160Z,21.36
2019-04-25T10:29:05.140Z,21.32
2019-04-25T10:30:16.843Z,21.37
2019-04-25T10:31:05.093Z,21.43
2019-04-25T10:32:05.099Z,21.39
2019-04-25T10:33:05.053Z,21.33
2019-04-25T10:34:05.124Z,21.42
2019-04-25T10:35:05.002Z,21.50
2019-04-25T10:36:04.993Z,21.40
2019-04-25T10:37:04.985Z,21.43
2019-04-25T10:38:04.946Z,21.50
2019-04-25T10:39:10.718Z,21.51
2019-04-25T10:40:04.896Z,21.50
2019-04-25T10:41:04.873Z,21.54
2019-04-25T10:42:04.885Z,21.58
2019-04-25T10:43:04.830Z,21.55
2019-04-25T10:44:04.801Z,21.54
2019-04-25T10:45:04.790Z,21.58
2019-04-25T10:46:05.352Z,21.57
2019-04-25T10:47:04.784Z,21.58
2019-04-25T10:48:04.715Z,21.54
2019-04-25T10:49:04.707Z,21.60
2019-04-25T10:50:05.660Z,21.70
2019-04-25T10:51:04.647Z,21.69
2019-04-25T10:52:04.647Z,21.69
2019-04-25T10:53:04.599Z,21.75
2019-04-25T10:54:04.626Z,21.67
2019-04-25T10:55:04.557Z,21.75
2019-04-25T10:56:06.009Z,21.75
2019-04-25T10:57:06.524Z,21.91
2019-04-25T10:58:04.486Z,21.82
2019-04-25T10:59:04.466Z,21.79
2019-04-25T11:00:09.072Z,21.69
2019-04-25T11:01:04.425Z,21.73
2019-04-25T11:02:04.423Z,21.75
2019-04-25T11:03:04.372Z,21.79
2019-04-25T11:04:04.719Z,21.76
2019-04-25T11:05:04.324Z,21.85
2019-04-25T11:06:04.306Z,21.95
2019-04-25T11:07:04.302Z,21.93
2019-04-25T11:08:04.376Z,21.92
2019-04-25T11:09:04.236Z,21.88
2019-04-25T11:10:04.211Z,21.96
2019-04-25T11:11:04.190Z,22.00
2019-04-25T11:12:04.193Z,22.07
2019-04-25T11:13:04.143Z,22.14
2019-04-25T11:14:04.118Z,22.08
2019-04-25T11:15:04.101Z,22.13
2019-04-25T11:16:04.072Z,22.11
2019-04-25T11:17:04.082Z,22.14
2019-04-25T11:18:04.285Z,22.13
2019-04-25T11:19:04.006Z,22.23
2019-04-25T11:20:05.516Z,22.20
2019-04-25T11:21:05.886Z,22.10
2019-04-25T11:22:04.059Z,22.13
2019-04-25T11:23:03.953Z,22.15
2019-04-25T11:24:04.117Z,22.18
2019-04-25T11:25:03.879Z,22.25
2019-04-25T11:26:03.982Z,22.38
2019-04-25T11:27:04.312Z,22.44
2019-04-25T11:28:03.950Z,22.39
2019-04-25T11:29:03.782Z,22.38
2019-04-25T11:30:10.852Z,22.41
2019-04-25T11:31:05.172Z,22.41
2019-04-25T11:32:03.742Z,22.43
2019-04-25T11:33:03.784Z,22.47
2019-04-25T11:34:03.717Z,22.47
2019-04-25T11:35:05.057Z,22.39
2019-04-25T11:36:04.195Z,22.45
2019-04-25T11:37:05.681Z,22.43
2019-04-25T11:38:03.647Z,22.36
2019-04-25T11:39:04.122Z,22.41
2019-04-25T11:40:04.312Z,22.44
2019-04-25T11:41:03.961Z,22.48
2019-04-25T11:42:03.500Z,22.57
2019-04-25T11:43:04.298Z,22.51
2019-04-25T11:44:03.547Z,22.53
2019-04-25T11:45:04.831Z,22.53
2019-04-25T11:46:04.903Z,22.51
2019-04-25T11:47:03.905Z,22.54
2019-04-25T11:48:03.383Z,22.60
2019-04-25T11:49:04.458Z,22.62
2019-04-25T11:50:03.942Z,22.76
2019-04-25T11:51:03.634Z,22.75
2019-04-25T11:52:05.296Z,22.81
2019-04-25T11:53:04.751Z,22.90
2019-04-25T11:54:03.596Z,22.84
2019-04-25T11:55:04.185Z,22.98
2019-04-25T11:56:03.697Z,22.98
2019-04-25T11:57:03.564Z,23.03
2019-04-25T11:58:03.676Z,23.05
2019-04-25T11:59:04.533Z,23.13
2019-04-25T12:00:04.203Z,23.12
2019-04-25T12:01:03.364Z,23.24
2019-04-25T12:02:04.669Z,23.28
2019-04-25T12:03:03.681Z,23.34
2019-04-25T12:04:04.099Z,23.25
2019-04-25T12:05:03.002Z,23.21
2019-04-25T12:06:02.948Z,23.18
2019-04-25T12:07:04.184Z,23.10
2019-04-25T12:08:04.091Z,23.09
2019-04-25T12:09:04.102Z,23.15
2019-04-25T12:10:03.753Z,23.27
2019-04-25T12:11:02.857Z,23.25
2019-04-25T12:12:03.548Z,23.36
2019-04-25T12:13:02.876Z,23.36
2019-04-25T12:14:04.268Z,23.41
2019-04-25T12:15:04.352Z,23.36
2019-04-25T12:16:04.134Z,23.44
2019-04-25T12:17:03.832Z,23.48
2019-04-25T12:18:04.490Z,23.50
2019-04-25T12:19:02.666Z,23.56
2019-04-25T12:20:03.876Z,23.62
2019-04-25T12:21:04.145Z,23.55
2019-04-25T12:22:04.064Z,23.58
2019-04-25T12:23:08.111Z,23.69
2019-04-25T12:24:05.445Z,23.65
2019-04-25T12:25:02.549Z,23.55
2019-04-25T12:26:03.910Z,23.56
2019-04-25T12:27:04.159Z,23.65
2019-04-25T12:28:04.249Z,23.59
2019-04-25T12:29:04.257Z,23.56
2019-04-25T12:30:03.870Z,23.68
2019-04-25T12:31:02.406Z,23.69
2019-04-25T12:32:03.928Z,23.71
2019-04-25T12:33:03.365Z,23.77
2019-04-25T12:34:03.432Z,23.69
2019-04-25T12:35:02.324Z,23.71
2019-04-25T12:36:02.298Z,23.73
2019-04-25T12:37:02.280Z,23.77
2019-04-25T12:38:03.475Z,23.77
2019-04-25T12:39:03.382Z,23.71
2019-04-25T12:40:04.067Z,23.63
2019-04-25T12:41:03.688Z,23.76
2019-04-25T12:42:02.181Z,23.73
2019-04-25T12:43:03.166Z,23.80
2019-04-25T12:44:03.588Z,23.78
2019-04-25T12:45:03.934Z,23.88
2019-04-25T12:46:02.125Z,23.95
2019-04-25T12:47:03.348Z,23.96
2019-04-25T12:48:02.048Z,23.92
2019-04-25T12:49:02.041Z,23.88
2019-04-25T12:50:01.997Z,23.87
2019-04-25T12:51:03.224Z,23.84
2019-04-25T12:52:01.953Z,23.84
2019-04-25T12:53:03.575Z,23.78